createdAt,value
2017-01-09T00:00:37.292Z,20.73
2017-01-09T00:01:37.309Z,20.74
2017-01-09T00:02:36.946Z,20.74
2017-01-09T00:03:36.570Z,20.72
2017-01-09T00:04:37.395Z,20.79
2017-01-09T00:05:36.620Z,20.82
2017-01-09T00:06:37.445Z,20.73
2017-01-09T00:07:36.689Z,20.77
2017-01-09T00:08:37.498Z,20.79
2017-01-09T00:09:37.127Z,20.72
2017-01-09T00:10:37.548Z,20.74
2017-01-09T00:11:36.776Z,20.73
2017-01-09T00:12:36.813Z,20.77
2017-01-09T00:13:36.838Z,20.82
2017-01-09T00:14:37.262Z,20.8
2017-01-09T00:15:37.283Z,20.8
2017-01-09T00:16:36.916Z,20.84
2017-01-09T00:17:36.960Z,20.7
2017-01-09T00:18:37.765Z,20.77
2017-01-09T00:19:37.394Z,20.76
2017-01-09T00:20:37.021Z,20.8
2017-01-09T00:21:37.451Z,20.85
2017-01-09T00:22:37.084Z,20.82
2017-01-09T00:23:37.109Z,20.85
2017-01-09T00:24:37.134Z,20.76
2017-01-09T00:25:37.562Z,20.76
2017-01-09T00:26:37.570Z,20.82
2017-01-09T00:27:38.008Z,20.77
2017-01-09T00:28:37.636Z,20.82
2017-01-09T00:29:37.261Z,20.82
2017-01-09T00:30:37.690Z,20.8
2017-01-09T00:31:37.311Z,20.82
2017-01-09T00:32:37.735Z,20.82
2017-01-09T00:33:37.376Z,20.79
2017-01-09T00:34:37.789Z,20.89
2017-01-09T00:35:38.215Z,20.87
2017-01-09T00:36:37.866Z,20.79
2017-01-09T00:37:37.875Z,20.82
2017-01-09T00:38:37.504Z,20.84
2017-01-09T00:39:38.324Z,20.79
2017-01-09T00:40:37.553Z,20.87
2017-01-09T00:41:37.590Z,20.8
2017-01-09T00:42:38.007Z,20.87
2017-01-09T00:43:38.436Z,20.85
2017-01-09T00:44:38.056Z,20.7
2017-01-09T00:45:37.693Z,20.87
2017-01-09T00:46:38.113Z,20.87
2017-01-09T00:47:38.142Z,20.87
2017-01-09T00:48:38.163Z,20.85
2017-01-09T00:49:37.792Z,20.94
2017-01-09T00:50:37.824Z,20.87
2017-01-09T00:51:38.645Z,20.89
2017-01-09T00:52:38.666Z,20.85
2017-01-09T00:53:37.902Z,20.94
2017-01-09T00:54:38.331Z,20.87
2017-01-09T00:55:38.351Z,20.85
2017-01-09T00:56:38.780Z,20.87
2017-01-09T00:57:38.417Z,20.87
2017-01-09T00:58:38.034Z,20.82
2017-01-09T00:59:38.457Z,20.79
2017-01-09T01:00:38.883Z,20.87
2017-01-09T01:01:38.516Z,20.82
2017-01-09T01:02:38.149Z,20.87
2017-01-09T01:03:38.565Z,20.82
2017-01-09T01:04:38.190Z,20.82
2017-01-09T01:05:38.226Z,20.77
2017-01-09T01:06:38.650Z,20.84
2017-01-09T01:07:38.668Z,20.85
2017-01-09T01:08:38.705Z,20.8
2017-01-09T01:09:39.126Z,20.8
2017-01-09T01:10:38.753Z,20.72
2017-01-09T01:11:38.779Z,20.79
2017-01-09T01:12:38.808Z,20.82
2017-01-09T01:13:38.837Z,20.87
2017-01-09T01:14:38.470Z,20.77
2017-01-09T01:15:39.291Z,20.82
2017-01-09T01:16:39.315Z,20.79
2017-01-09T01:17:38.944Z,20.79
2017-01-09T01:18:39.369Z,20.77
2017-01-09T01:19:38.992Z,20.73
2017-01-09T01:20:38.625Z,20.76
2017-01-09T01:21:39.046Z,20.76
2017-01-09T01:22:39.071Z,20.8
2017-01-09T01:23:38.704Z,20.84
2017-01-09T01:24:38.724Z,20.76
2017-01-09T01:25:39.548Z,20.87
2017-01-09T01:26:39.579Z,20.72
2017-01-09T01:27:39.198Z,20.77
2017-01-09T01:28:39.235Z,20.72
2017-01-09T01:29:39.264Z,20.8
2017-01-09T01:30:38.893Z,20.85
2017-01-09T01:31:39.310Z,20.72
2017-01-09T01:32:38.954Z,20.77
2017-01-09T01:33:38.974Z,20.82
2017-01-09T01:34:39.799Z,20.84
2017-01-09T01:35:39.807Z,20.69
2017-01-09T01:36:39.057Z,20.82
2017-01-09T01:37:39.078Z,20.73
2017-01-09T01:38:39.502Z,20.82
2017-01-09T01:39:39.551Z,20.76
2017-01-09T01:40:39.151Z,20.79
2017-01-09T01:41:39.585Z,20.76
2017-01-09T01:42:40.014Z,20.87
2017-01-09T01:43:40.030Z,20.8
2017-01-09T01:44:39.274Z,20.87
2017-01-09T01:45:39.287Z,20.84
2017-01-09T01:46:39.724Z,20.84
2017-01-09T01:47:39.345Z,20.77
2017-01-09T01:48:39.785Z,20.82
2017-01-09T01:49:39.794Z,20.85
2017-01-09T01:50:39.819Z,20.82
2017-01-09T01:51:40.244Z,20.79
2017-01-09T01:52:40.272Z,20.88
2017-01-09T01:53:39.901Z,20.87
2017-01-09T01:54:39.526Z,20.87
2017-01-09T01:55:39.554Z,20.89
2017-01-09T01:56:40.383Z,20.82
2017-01-09T01:57:40.404Z,20.74
2017-01-09T01:58:39.636Z,20.87
2017-01-09T01:59:40.062Z,20.88
2017-01-09T02:00:40.482Z,20.88
2017-01-09T02:01:40.519Z,20.88
2017-01-09T02:02:39.752Z,20.91
2017-01-09T02:03:40.172Z,20.88
2017-01-09T02:04:39.801Z,20.89
2017-01-09T02:05:40.624Z,20.88
2017-01-09T02:06:39.862Z,20.84
2017-01-09T02:07:40.275Z,20.84
2017-01-09T02:08:40.308Z,20.87
2017-01-09T02:09:40.725Z,20.91
2017-01-09T02:10:40.363Z,20.89
2017-01-09T02:11:39.986Z,20.85
2017-01-09T02:12:40.403Z,20.88
2017-01-09T02:13:40.035Z,20.87
2017-01-09T02:14:40.076Z,20.8
2017-01-09T02:15:40.889Z,20.89
2017-01-09T02:16:40.910Z,20.88
2017-01-09T02:17:40.570Z,20.87
2017-01-09T02:18:40.975Z,20.88
2017-01-09T02:19:40.596Z,20.8
2017-01-09T02:20:40.624Z,20.89
2017-01-09T02:21:40.641Z,20.84
2017-01-09T02:22:40.671Z,20.89
2017-01-09T02:23:40.306Z,20.92
2017-01-09T02:24:40.339Z,20.91
2017-01-09T02:25:41.140Z,20.91
2017-01-09T02:26:40.789Z,20.88
2017-01-09T02:27:41.210Z,20.85
2017-01-09T02:28:40.450Z,20.91
2017-01-09T02:29:40.463Z,20.89
2017-01-09T02:30:40.896Z,20.89
2017-01-09T02:31:40.520Z,20.89
2017-01-09T02:32:40.949Z,20.84
2017-01-09T02:33:40.574Z,20.87
2017-01-09T02:34:40.995Z,20.88
2017-01-09T02:35:41.415Z,20.87
2017-01-09T02:36:41.048Z,20.88
2017-01-09T02:37:41.072Z,20.88
2017-01-09T02:38:40.709Z,20.85
2017-01-09T02:39:41.122Z,20.88
2017-01-09T02:40:41.551Z,20.88
2017-01-09T02:41:41.600Z,20.88
2017-01-09T02:42:41.613Z,20.89
2017-01-09T02:43:41.233Z,20.85
2017-01-09T02:44:41.666Z,20.87
2017-01-09T02:45:40.886Z,20.88
2017-01-09T02:46:41.715Z,20.76
2017-01-09T02:47:41.339Z,20.91
2017-01-09T02:48:41.368Z,20.87
2017-01-09T02:49:41.393Z,20.84
2017-01-09T02:50:41.419Z,20.82
2017-01-09T02:51:41.846Z,20.84
2017-01-09T02:52:41.479Z,20.8
2017-01-09T02:53:41.499Z,20.77
2017-01-09T02:54:41.128Z,20.84
2017-01-09T02:55:41.156Z,20.84
2017-01-09T02:56:41.982Z,20.77
2017-01-09T02:57:42.002Z,20.82
2017-01-09T02:58:41.235Z,20.85
2017-01-09T02:59:41.663Z,20.84
2017-01-09T03:00:41.680Z,20.8
2017-01-09T03:01:41.713Z,20.8
2017-01-09T03:02:41.345Z,20.79
2017-01-09T03:03:42.158Z,20.79
2017-01-09T03:04:41.796Z,20.85
2017-01-09T03:05:41.819Z,20.88
2017-01-09T03:06:41.448Z,20.79
2017-01-09T03:07:41.477Z,20.88
2017-01-09T03:08:41.901Z,20.77
2017-01-09T03:09:41.926Z,20.91
2017-01-09T03:10:42.360Z,20.88
2017-01-09T03:11:42.379Z,20.88
2017-01-09T03:12:41.617Z,20.88
2017-01-09T03:13:42.429Z,20.89
2017-01-09T03:14:41.669Z,20.84
2017-01-09T03:15:42.138Z,20.85
2017-01-09T03:16:42.111Z,20.85
2017-01-09T03:17:42.535Z,20.91
2017-01-09T03:18:42.564Z,20.72
2017-01-09T03:19:42.592Z,20.89
2017-01-09T03:20:42.618Z,20.89
2017-01-09T03:21:41.850Z,20.89
2017-01-09T03:22:41.875Z,20.85
2017-01-09T03:23:41.904Z,20.91
2017-01-09T03:24:41.929Z,20.88
2017-01-09T03:25:42.353Z,20.88
2017-01-09T03:26:42.382Z,20.88
2017-01-09T03:27:42.826Z,20.87
2017-01-09T03:28:42.427Z,20.88
2017-01-09T03:29:42.484Z,20.88
2017-01-09T03:30:42.880Z,20.88
2017-01-09T03:31:42.505Z,20.92
2017-01-09T03:32:42.544Z,20.92
2017-01-09T03:33:42.563Z,20.89
2017-01-09T03:34:42.200Z,20.76
2017-01-09T03:35:43.013Z,20.91
2017-01-09T03:36:43.049Z,20.85
2017-01-09T03:37:43.069Z,20.87
2017-01-09T03:38:42.307Z,20.89
2017-01-09T03:39:42.727Z,20.91
2017-01-09T03:40:42.352Z,20.88
2017-01-09T03:41:43.185Z,20.91
2017-01-09T03:42:42.414Z,20.88
2017-01-09T03:43:42.442Z,20.89
2017-01-09T03:44:43.255Z,20.89
2017-01-09T03:45:43.283Z,20.91
2017-01-09T03:46:42.912Z,20.91
2017-01-09T03:47:42.941Z,20.88
2017-01-09T03:48:42.562Z,20.91
2017-01-09T03:49:42.990Z,20.84
2017-01-09T03:50:43.419Z,20.87
2017-01-09T03:51:42.653Z,20.87
2017-01-09T03:52:43.073Z,20.89
2017-01-09T03:53:43.498Z,20.91
2017-01-09T03:54:43.131Z,20.85
2017-01-09T03:55:43.154Z,20.94
2017-01-09T03:56:43.574Z,20.91
2017-01-09T03:57:43.208Z,20.82
2017-01-09T03:58:42.845Z,20.87
2017-01-09T03:59:42.865Z,20.87
2017-01-09T04:00:42.890Z,20.89
2017-01-09T04:01:43.712Z,20.91
2017-01-09T04:02:43.736Z,20.89
2017-01-09T04:03:43.765Z,20.91
2017-01-09T04:04:43.000Z,20.85
2017-01-09T04:05:43.819Z,20.85
2017-01-09T04:06:43.459Z,20.89
2017-01-09T04:07:43.473Z,20.88
2017-01-09T04:08:43.505Z,20.82
2017-01-09T04:09:43.161Z,20.87
2017-01-09T04:10:43.158Z,20.87
2017-01-09T04:11:43.591Z,20.92
2017-01-09T04:12:44.000Z,20.87
2017-01-09T04:13:43.245Z,20.91
2017-01-09T04:14:43.670Z,20.89
2017-01-09T04:15:43.295Z,20.91
2017-01-09T04:16:44.111Z,20.87
2017-01-09T04:17:43.744Z,20.88
2017-01-09T04:18:43.777Z,20.84
2017-01-09T04:19:43.402Z,20.87
2017-01-09T04:20:44.220Z,20.92
2017-01-09T04:21:43.875Z,20.88
2017-01-09T04:22:43.492Z,20.85
2017-01-09T04:23:43.508Z,20.89
2017-01-09T04:24:44.337Z,20.88
2017-01-09T04:25:44.358Z,20.84
2017-01-09T04:26:43.979Z,20.87
2017-01-09T04:27:44.012Z,20.87
2017-01-09T04:28:44.440Z,20.84
2017-01-09T04:29:44.065Z,20.87
2017-01-09T04:30:43.694Z,20.88
2017-01-09T04:31:43.719Z,20.91
2017-01-09T04:32:44.139Z,20.88
2017-01-09T04:33:44.171Z,20.89
2017-01-09T04:34:43.805Z,20.88
2017-01-09T04:35:44.622Z,20.88
2017-01-09T04:36:44.258Z,20.94
2017-01-09T04:37:44.277Z,20.89
2017-01-09T04:38:44.712Z,20.85
2017-01-09T04:39:43.933Z,20.94
2017-01-09T04:40:43.961Z,20.91
2017-01-09T04:41:44.386Z,20.87
2017-01-09T04:42:44.006Z,20.88
2017-01-09T04:43:44.040Z,20.88
2017-01-09T04:44:44.076Z,20.88
2017-01-09T04:45:44.101Z,20.91
2017-01-09T04:46:44.513Z,20.84
2017-01-09T04:47:44.534Z,20.92
2017-01-09T04:48:44.169Z,20.87
2017-01-09T04:49:44.592Z,20.84
2017-01-09T04:50:44.633Z,20.84
2017-01-09T04:51:44.654Z,20.89
2017-01-09T04:52:44.278Z,20.88
2017-01-09T04:53:44.307Z,20.91
2017-01-09T04:54:44.744Z,20.89
2017-01-09T04:55:45.164Z,20.94
2017-01-09T04:56:44.793Z,20.85
2017-01-09T04:57:44.810Z,20.88
2017-01-09T04:58:44.447Z,20.94
2017-01-09T04:59:45.263Z,20.89
2017-01-09T05:00:44.897Z,20.82
2017-01-09T05:01:44.914Z,20.85
2017-01-09T05:02:44.553Z,20.84
2017-01-09T05:03:45.367Z,20.88
2017-01-09T05:04:44.604Z,20.87
2017-01-09T05:05:44.633Z,20.85
2017-01-09T05:06:45.452Z,20.89
2017-01-09T05:07:45.074Z,20.89
2017-01-09T05:08:44.711Z,20.87
2017-01-09T05:09:44.735Z,20.74
2017-01-09T05:10:45.164Z,20.79
2017-01-09T05:11:45.189Z,20.84
2017-01-09T05:12:45.214Z,20.87
2017-01-09T05:13:45.246Z,20.88
2017-01-09T05:14:45.271Z,20.85
2017-01-09T05:15:45.688Z,20.8
2017-01-09T05:16:44.940Z,20.89
2017-01-09T05:17:45.353Z,20.89
2017-01-09T05:18:45.394Z,20.92
2017-01-09T05:19:45.791Z,20.84
2017-01-09T05:20:45.424Z,20.8
2017-01-09T05:21:45.848Z,20.77
2017-01-09T05:22:45.888Z,20.88
2017-01-09T05:23:45.901Z,20.91
2017-01-09T05:24:45.931Z,20.88
2017-01-09T05:25:45.559Z,20.89
2017-01-09T05:26:45.592Z,20.88
2017-01-09T05:27:45.613Z,20.89
2017-01-09T05:28:46.045Z,20.88
2017-01-09T05:29:45.711Z,20.91
2017-01-09T05:30:45.709Z,20.89
2017-01-09T05:31:46.120Z,20.89
2017-01-09T05:32:46.149Z,20.88
2017-01-09T05:33:45.377Z,20.88
2017-01-09T05:34:45.798Z,20.89
2017-01-09T05:35:45.428Z,20.94
2017-01-09T05:36:46.256Z,20.91
2017-01-09T05:37:45.877Z,20.87
2017-01-09T05:38:45.909Z,20.88
2017-01-09T05:39:45.938Z,20.92
2017-01-09T05:40:45.967Z,20.85
2017-01-09T05:41:46.391Z,20.91
2017-01-09T05:42:45.620Z,20.87
2017-01-09T05:43:46.437Z,20.89
2017-01-09T05:44:46.065Z,20.89
2017-01-09T05:45:45.694Z,20.95
2017-01-09T05:46:45.727Z,20.94
2017-01-09T05:47:46.147Z,20.95
2017-01-09T05:48:45.792Z,20.97
2017-01-09T05:49:46.198Z,20.98
2017-01-09T05:50:46.226Z,20.89
2017-01-09T05:51:46.251Z,20.92
2017-01-09T05:52:46.307Z,20.99
2017-01-09T05:53:45.905Z,20.92
2017-01-09T05:54:45.941Z,21.01
2017-01-09T05:55:46.362Z,20.98
2017-01-09T05:56:46.402Z,20.99
2017-01-09T05:57:46.411Z,20.89
2017-01-09T05:58:46.836Z,20.99
2017-01-09T05:59:46.469Z,20.95
2017-01-09T06:00:46.525Z,21.01
2017-01-09T06:01:46.914Z,20.89
2017-01-09T06:02:46.930Z,20.92
2017-01-09T06:03:46.183Z,21.06
2017-01-09T06:04:46.208Z,20.99
2017-01-09T06:05:46.629Z,20.95
2017-01-09T06:06:46.262Z,20.95
2017-01-09T06:07:46.678Z,21.07
2017-01-09T06:08:47.103Z,20.97
2017-01-09T06:09:46.768Z,21.04
2017-01-09T06:10:46.764Z,20.94
2017-01-09T06:11:46.402Z,21.06
2017-01-09T06:12:46.818Z,21.06
2017-01-09T06:13:46.442Z,20.94
2017-01-09T06:14:46.876Z,21.01
2017-01-09T06:15:46.499Z,21.04
2017-01-09T06:16:46.925Z,21.06
2017-01-09T06:17:47.344Z,21.03
2017-01-09T06:18:47.379Z,20.97
2017-01-09T06:19:46.607Z,21.01
2017-01-09T06:20:47.432Z,21.07
2017-01-09T06:21:47.476Z,21.04
2017-01-09T06:22:46.689Z,21.07
2017-01-09T06:23:47.114Z,20.99
2017-01-09T06:24:46.774Z,21.04
2017-01-09T06:25:46.768Z,21.07
2017-01-09T06:26:47.600Z,21.09
2017-01-09T06:27:47.613Z,21.09
2017-01-09T06:28:47.649Z,21.1
2017-01-09T06:29:46.873Z,21.12
2017-01-09T06:30:46.899Z,21.09
2017-01-09T06:31:47.324Z,21.09
2017-01-09T06:32:47.364Z,21.13
2017-01-09T06:33:47.773Z,21.12
2017-01-09T06:34:47.820Z,21.12
2017-01-09T06:35:47.035Z,21.07
2017-01-09T06:36:47.063Z,21.06
2017-01-09T06:37:47.489Z,21.09
2017-01-09T06:38:47.909Z,21.09
2017-01-09T06:39:47.146Z,21.16
2017-01-09T06:40:47.974Z,21.09
2017-01-09T06:41:47.991Z,21.13
2017-01-09T06:42:47.633Z,21.07
2017-01-09T06:43:47.649Z,21.12
2017-01-09T06:44:47.685Z,21.07
2017-01-09T06:45:48.098Z,21.09
2017-01-09T06:46:48.131Z,21.09
2017-01-09T06:47:48.147Z,21.12
2017-01-09T06:48:47.792Z,21.07
2017-01-09T06:49:48.205Z,21.09
2017-01-09T06:50:47.439Z,21.04
2017-01-09T06:51:47.462Z,21.07
2017-01-09T06:52:47.483Z,21.09
2017-01-09T06:53:47.923Z,21.07
2017-01-09T06:54:47.941Z,21.07
2017-01-09T06:55:47.969Z,21.09
2017-01-09T06:56:48.006Z,21.07
2017-01-09T06:57:48.023Z,21.06
2017-01-09T06:58:48.435Z,21.09
2017-01-09T06:59:48.076Z,21.03
2017-01-09T07:00:47.712Z,21.03
2017-01-09T07:01:47.733Z,21.01
2017-01-09T07:02:47.777Z,20.98
2017-01-09T07:03:48.181Z,20.99
2017-01-09T07:04:48.208Z,20.97
2017-01-09T07:05:48.233Z,21.03
2017-01-09T07:06:48.265Z,21.03
2017-01-09T07:07:48.686Z,21.09
2017-01-09T07:08:48.334Z,20.95
2017-01-09T07:09:48.339Z,20.97
2017-01-09T07:10:47.975Z,21.01
2017-01-09T07:11:48.000Z,20.95
2017-01-09T07:12:48.033Z,20.97
2017-01-09T07:13:48.842Z,20.94
2017-01-09T07:14:48.479Z,20.99
2017-01-09T07:15:48.903Z,20.99
2017-01-09T07:16:48.936Z,20.97
2017-01-09T07:17:48.557Z,20.92
2017-01-09T07:18:48.597Z,20.91
2017-01-09T07:19:48.211Z,20.94
2017-01-09T07:20:48.247Z,20.98
2017-01-09T07:21:48.271Z,20.98
2017-01-09T07:22:48.705Z,21.01
2017-01-09T07:23:48.717Z,20.97
2017-01-09T07:24:48.345Z,20.97
2017-01-09T07:25:48.776Z,20.94
2017-01-09T07:26:48.795Z,21.03
2017-01-09T07:27:48.827Z,20.88
2017-01-09T07:28:48.456Z,20.91
2017-01-09T07:29:48.509Z,20.98
2017-01-09T07:30:48.505Z,20.85
2017-01-09T07:31:49.326Z,20.87
2017-01-09T07:32:48.563Z,20.84
2017-01-09T07:33:48.989Z,20.88
2017-01-09T07:34:49.409Z,20.89
2017-01-09T07:35:49.037Z,20.91
2017-01-09T07:36:49.057Z,20.87
2017-01-09T07:37:49.091Z,20.91
2017-01-09T07:38:48.723Z,20.98
2017-01-09T07:39:49.540Z,20.98
2017-01-09T07:40:48.789Z,20.85
2017-01-09T07:41:48.809Z,20.92
2017-01-09T07:42:49.242Z,20.98
2017-01-09T07:43:49.263Z,21.01
2017-01-09T07:44:49.280Z,20.94
2017-01-09T07:45:49.300Z,20.95
2017-01-09T07:46:48.937Z,20.92
2017-01-09T07:47:48.966Z,21.06
2017-01-09T07:48:49.382Z,20.99
2017-01-09T07:49:49.807Z,20.94
2017-01-09T07:50:49.059Z,20.94
2017-01-09T07:51:49.468Z,20.94
2017-01-09T07:52:49.497Z,20.97
2017-01-09T07:53:49.126Z,20.89
2017-01-09T07:54:49.151Z,20.97
2017-01-09T07:55:49.967Z,20.98
2017-01-09T07:56:49.196Z,21.01
2017-01-09T07:57:49.233Z,20.88
2017-01-09T07:58:49.257Z,20.92
2017-01-09T07:59:49.286Z,20.98
2017-01-09T08:00:49.707Z,20.94
2017-01-09T08:01:49.739Z,20.91
2017-01-09T08:02:49.772Z,20.98
2017-01-09T08:03:49.789Z,20.97
2017-01-09T08:04:50.213Z,20.94
2017-01-09T08:05:49.446Z,20.92
2017-01-09T08:06:49.871Z,20.97
2017-01-09T08:07:49.499Z,20.91
2017-01-09T08:08:49.528Z,20.99
2017-01-09T08:09:49.965Z,20.97
2017-01-09T08:10:49.982Z,20.98
2017-01-09T08:11:50.395Z,20.95
2017-01-09T08:12:49.639Z,20.94
2017-01-09T08:13:50.444Z,20.95
2017-01-09T08:14:50.485Z,21.07
2017-01-09T08:15:50.513Z,21.07
2017-01-09T08:16:49.742Z,21.06
2017-01-09T08:17:49.759Z,21.04
2017-01-09T08:18:49.792Z,21.1
2017-01-09T08:19:50.224Z,21.04
2017-01-09T08:20:50.237Z,20.98
2017-01-09T08:21:50.274Z,21.03
2017-01-09T08:22:49.907Z,21.03
2017-01-09T08:23:50.724Z,21.06
2017-01-09T08:24:50.352Z,21.06
2017-01-09T08:25:50.376Z,21.09
2017-01-09T08:26:50.001Z,21.09
2017-01-09T08:27:50.031Z,21.06
2017-01-09T08:28:50.063Z,21.09
2017-01-09T08:29:50.092Z,21.12
2017-01-09T08:30:50.117Z,21.04
2017-01-09T08:31:50.941Z,21.14
2017-01-09T08:32:50.954Z,21.06
2017-01-09T08:33:50.590Z,21.04
2017-01-09T08:34:50.623Z,21.1
2017-01-09T08:35:50.639Z,21.1
2017-01-09T08:36:50.672Z,21.1
2017-01-09T08:37:50.693Z,21.14
2017-01-09T08:38:50.334Z,21.13
2017-01-09T08:39:50.746Z,21.16
2017-01-09T08:40:51.191Z,21.13
2017-01-09T08:41:50.804Z,21.16
2017-01-09T08:42:51.225Z,21.16
2017-01-09T08:43:50.857Z,21.06
2017-01-09T08:44:51.282Z,21.13
2017-01-09T08:45:50.911Z,21.1
2017-01-09T08:46:50.555Z,21.19
2017-01-09T08:47:50.976Z,21.13
2017-01-09T08:48:50.589Z,21.19
2017-01-09T08:49:51.026Z,21.22
2017-01-09T08:50:51.442Z,21.16
2017-01-09T08:51:50.679Z,21.21
2017-01-09T08:52:51.100Z,21.22
2017-01-09T08:53:51.129Z,21.17
2017-01-09T08:54:51.161Z,21.27
2017-01-09T08:55:51.194Z,21.09
2017-01-09T08:56:51.239Z,21.19
2017-01-09T08:57:51.235Z,21.19
2017-01-09T08:58:50.872Z,21.14
2017-01-09T08:59:51.689Z,21.24
2017-01-09T09:00:51.722Z,21.19
2017-01-09T09:01:50.953Z,21.19
2017-01-09T09:02:51.375Z,21.19
2017-01-09T09:03:51.784Z,21.13
2017-01-09T09:04:51.424Z,21.12
2017-01-09T09:05:51.449Z,21.24
2017-01-09T09:06:51.867Z,21.13
2017-01-09T09:07:51.910Z,21.17
2017-01-09T09:08:51.520Z,21.16
2017-01-09T09:09:51.557Z,21.13
2017-01-09T09:10:51.200Z,21.06
2017-01-09T09:11:51.614Z,21.24
2017-01-09T09:12:51.638Z,21.19
2017-01-09T09:13:52.056Z,21.13
2017-01-09T09:14:52.082Z,21.1
2017-01-09T09:15:51.316Z,21.16
2017-01-09T09:16:51.742Z,21.13
2017-01-09T09:17:52.158Z,21.13
2017-01-09T09:18:51.835Z,21.17
2017-01-09T09:19:51.820Z,21.17
2017-01-09T09:20:51.857Z,21.16
2017-01-09T09:21:51.874Z,21.14
2017-01-09T09:22:52.300Z,21.1
2017-01-09T09:23:52.347Z,21.19
2017-01-09T09:24:51.964Z,21.1
2017-01-09T09:25:51.584Z,21.17
2017-01-09T09:26:52.413Z,21.07
2017-01-09T09:27:52.440Z,21.09
2017-01-09T09:28:52.462Z,21.16
2017-01-09T09:29:52.095Z,21.16
2017-01-09T09:30:51.724Z,21.09
2017-01-09T09:31:52.539Z,21.16
2017-01-09T09:32:52.582Z,21.16
2017-01-09T09:33:52.598Z,21.1
2017-01-09T09:34:51.825Z,21.14
2017-01-09T09:35:52.251Z,21.12
2017-01-09T09:36:52.284Z,21.13
2017-01-09T09:37:52.305Z,21.13
2017-01-09T09:38:51.950Z,21.13
2017-01-09T09:39:51.959Z,21.17
2017-01-09T09:40:52.383Z,21.04
2017-01-09T09:41:52.018Z,21.14
2017-01-09T09:42:52.043Z,21.1
2017-01-09T09:43:52.860Z,21.09
2017-01-09T09:44:52.898Z,21.13
2017-01-09T09:45:52.519Z,21.04
2017-01-09T09:46:52.548Z,21.13
2017-01-09T09:47:52.185Z,21.1
2017-01-09T09:48:52.221Z,21.1
2017-01-09T09:49:52.232Z,21.12
2017-01-09T09:50:52.666Z,21.12
2017-01-09T09:51:52.684Z,21.07
2017-01-09T09:52:53.100Z,21.09
2017-01-09T09:53:52.341Z,21.07
2017-01-09T09:54:53.174Z,21.09
2017-01-09T09:55:52.791Z,21.13
2017-01-09T09:56:52.823Z,21.1
2017-01-09T09:57:52.855Z,21.12
2017-01-09T09:58:52.873Z,21.06
2017-01-09T09:59:52.497Z,21.12
2017-01-09T10:00:52.926Z,21.13
2017-01-09T10:01:52.954Z,21.1
2017-01-09T10:02:52.975Z,21.12
2017-01-09T10:03:53.008Z,21.09
2017-01-09T10:04:53.037Z,21.06
2017-01-09T10:05:53.466Z,21.13
2017-01-09T10:06:52.687Z,21.07
2017-01-09T10:07:53.116Z,21.14
2017-01-09T10:08:53.145Z,21.1
2017-01-09T10:09:53.565Z,21.09
2017-01-09T10:10:53.602Z,21.13
2017-01-09T10:11:53.226Z,21.13
2017-01-09T10:12:53.243Z,21.12
2017-01-09T10:13:53.674Z,21.13
2017-01-09T10:14:53.300Z,21.13
2017-01-09T10:15:53.725Z,21.07
2017-01-09T10:16:53.358Z,21.16
2017-01-09T10:17:53.387Z,21.19
2017-01-09T10:18:53.808Z,21.13
2017-01-09T10:19:53.440Z,21.13
2017-01-09T10:20:53.465Z,21.16
2017-01-09T10:21:53.481Z,21.12
2017-01-09T10:22:53.514Z,21.19
2017-01-09T10:23:53.543Z,21.17
2017-01-09T10:24:53.572Z,21.16
2017-01-09T10:25:53.600Z,21.14
2017-01-09T10:26:53.235Z,21.19
2017-01-09T10:27:53.650Z,21.13
2017-01-09T10:28:53.682Z,21.21
2017-01-09T10:29:53.700Z,21.1
2017-01-09T10:30:53.729Z,21.14
2017-01-09T10:31:53.757Z,21.07
2017-01-09T10:32:53.791Z,21.12
2017-01-09T10:33:53.823Z,21.09
2017-01-09T10:34:53.851Z,21.16
2017-01-09T10:35:53.873Z,21.12
2017-01-09T10:36:53.903Z,21.13
2017-01-09T10:37:53.923Z,21.13
2017-01-09T10:38:54.347Z,21.13
2017-01-09T10:39:54.376Z,21.19
2017-01-09T10:40:54.401Z,21.13
2017-01-09T10:41:54.425Z,21.16
2017-01-09T10:42:54.460Z,21.13
2017-01-09T10:43:53.691Z,21.14
2017-01-09T10:44:54.116Z,21.13
2017-01-09T10:45:54.136Z,21.16
2017-01-09T10:46:54.564Z,21.1
2017-01-09T10:47:54.586Z,21.12
2017-01-09T10:48:54.217Z,21.17
2017-01-09T10:49:54.641Z,21.14
2017-01-09T10:50:54.671Z,21.19
2017-01-09T10:51:54.301Z,21.14
2017-01-09T10:52:53.950Z,21.21
2017-01-09T10:53:53.962Z,21.19
2017-01-09T10:54:53.987Z,21.16
2017-01-09T10:55:54.412Z,21.17
2017-01-09T10:56:54.429Z,21.16
2017-01-09T10:57:54.065Z,21.1
2017-01-09T10:58:54.094Z,21.19
2017-01-09T10:59:54.529Z,21.19
2017-01-09T11:00:54.532Z,21.17
2017-01-09T11:01:54.569Z,21.16
2017-01-09T11:02:54.201Z,21.17
2017-01-09T11:03:55.018Z,21.16
2017-01-09T11:04:54.254Z,21.16
2017-01-09T11:05:54.279Z,21.13
2017-01-09T11:06:54.705Z,21.13
2017-01-09T11:07:54.330Z,21.17
2017-01-09T11:08:54.754Z,21.16
2017-01-09T11:09:55.179Z,21.21
2017-01-09T11:10:54.811Z,21.17
2017-01-09T11:11:54.452Z,21.16
2017-01-09T11:12:54.878Z,21.13
2017-01-09T11:13:55.281Z,21.16
2017-01-09T11:14:55.318Z,21.17
2017-01-09T11:15:54.947Z,21.19
2017-01-09T11:16:54.971Z,21.14
2017-01-09T11:17:55.396Z,21.09
2017-01-09T11:18:54.638Z,21.14
2017-01-09T11:19:55.054Z,21.16
2017-01-09T11:20:55.078Z,21.04
2017-01-09T11:21:55.102Z,21.13
2017-01-09T11:22:55.132Z,21.13
2017-01-09T11:23:55.565Z,21.13
2017-01-09T11:24:55.185Z,21.19
2017-01-09T11:25:55.215Z,21.14
2017-01-09T11:26:55.243Z,21.12
2017-01-09T11:27:54.875Z,21.17
2017-01-09T11:28:55.709Z,21.1
2017-01-09T11:29:55.725Z,21.16
2017-01-09T11:30:54.958Z,21.16
2017-01-09T11:31:55.383Z,21.12
2017-01-09T11:32:55.400Z,21.19
2017-01-09T11:33:55.434Z,21.06
2017-01-09T11:34:55.069Z,21.13
2017-01-09T11:35:55.486Z,21.13
2017-01-09T11:36:55.115Z,21.03
2017-01-09T11:37:55.151Z,21.13
2017-01-09T11:38:55.964Z,21.12
2017-01-09T11:39:55.989Z,21.17
2017-01-09T11:40:56.017Z,21.17
2017-01-09T11:41:55.258Z,21.19
2017-01-09T11:42:55.283Z,21.13
2017-01-09T11:43:55.704Z,21.14
2017-01-09T11:44:55.337Z,21.16
2017-01-09T11:45:55.758Z,21.04
2017-01-09T11:46:55.391Z,21.19
2017-01-09T11:47:55.807Z,21.14
2017-01-09T11:48:56.240Z,21.16
2017-01-09T11:49:55.459Z,21.13
2017-01-09T11:50:55.884Z,21.14
2017-01-09T11:51:55.925Z,21.13
2017-01-09T11:52:55.546Z,21.19
2017-01-09T11:53:55.571Z,21.22
2017-01-09T11:54:55.598Z,21.19
2017-01-09T11:55:56.416Z,21.14
2017-01-09T11:56:56.444Z,21.14
2017-01-09T11:57:56.077Z,21.14
2017-01-09T11:58:56.101Z,21.19
2017-01-09T11:59:56.129Z,21.14
2017-01-09T12:00:55.762Z,21.19
2017-01-09T12:01:56.175Z,21.14
2017-01-09T12:02:56.208Z,21.19
2017-01-09T12:03:56.228Z,21.21
2017-01-09T12:04:55.873Z,21.24
2017-01-09T12:05:56.688Z,21.22
2017-01-09T12:06:56.318Z,21.16
2017-01-09T12:07:56.743Z,21.19
2017-01-09T12:08:56.768Z,21.19
2017-01-09T12:09:56.406Z,21.19
2017-01-09T12:10:56.424Z,21.24
2017-01-09T12:11:56.445Z,21.21
2017-01-09T12:12:56.474Z,21.19
2017-01-09T12:13:56.507Z,21.16
2017-01-09T12:14:56.135Z,21.17
2017-01-09T12:15:56.564Z,21.17
2017-01-09T12:16:56.580Z,21.17
2017-01-09T12:17:57.013Z,21.21
2017-01-09T12:18:57.038Z,21.17
2017-01-09T12:19:56.273Z,21.17
2017-01-09T12:20:57.092Z,21.17
2017-01-09T12:21:56.321Z,21.19
2017-01-09T12:22:56.357Z,21.21
2017-01-09T12:23:56.773Z,21.17
2017-01-09T12:24:56.410Z,21.22
2017-01-09T12:25:56.831Z,21.22
2017-01-09T12:26:56.855Z,21.19
2017-01-09T12:27:56.888Z,21.25
2017-01-09T12:28:57.314Z,21.24
2017-01-09T12:29:56.947Z,21.22
2017-01-09T12:30:56.966Z,21.17
2017-01-09T12:31:56.607Z,21.25
2017-01-09T12:32:57.413Z,21.21
2017-01-09T12:33:57.444Z,21.27
2017-01-09T12:34:57.469Z,21.17
2017-01-09T12:35:56.714Z,21.22
2017-01-09T12:36:56.734Z,21.31
2017-01-09T12:37:57.154Z,21.19
2017-01-09T12:38:57.575Z,21.17
2017-01-09T12:39:57.204Z,21.28
2017-01-09T12:40:57.233Z,21.29
2017-01-09T12:41:56.858Z,21.27
2017-01-09T12:42:56.883Z,21.28
2017-01-09T12:43:56.919Z,21.24
2017-01-09T12:44:57.736Z,21.32
2017-01-09T12:45:56.973Z,21.25
2017-01-09T12:46:57.397Z,21.28
2017-01-09T12:47:57.417Z,21.22
2017-01-09T12:48:57.051Z,21.28
2017-01-09T12:49:57.875Z,21.28
2017-01-09T12:50:57.508Z,21.25
2017-01-09T12:51:57.529Z,21.28
2017-01-09T12:52:57.553Z,21.25
2017-01-09T12:53:57.194Z,21.22